King Salmon Airport King Salmon US
ICAO: PAKN
IATA:
Category: Medium
Scheduled Services:

Elevation: 73 ft
TransAlt. 18000 ft.

Airport Communications:
HARMONY:140.1
ATIS:128.8
ANCHORAGE CNTR:124.8
CTAF:121.9
RDO:122.2
GND:121.9
OPS:37.22
PTD:37.22
TWR:118.3

PAKN Zoom In..

Runways:

(A) RW 12 length 8901 ft width 150 ft
ILS 110.30 / hdg 116

(B) RW 18 length 4018 ft width 100 ft
---- / hdg 180

(C) RW 30 length 8901 ft width 150 ft
---- / hdg 296

(D) RW 36 length 4018 ft width 100 ft
---- / hdg 360

Location; PAKN
Day. 24 / Time. 07.54 Zulu
* Altimeter: 29.55
* Temperature: 07° c. 44.6°f.
* Wind from: 080° Speed 07 kn.
Dewpoint: 02° c.
Visibility: 10 Statute Miles.
Clouds: Scattered 6500 ft.
Clouds: Scattered 8500 ft.

PAKN 240754Z 08007KT 10SM SCT065 SCT085 07/02 A2955 RMK AO2 SLP007 T00670022


Wind From 080°
Speed 07 kn.

 
 
jpsmedia.com for Web Design SOUNDCLOUD worldairports.se 2018   terms of use